Natashquan, Canada
Current Conditions -  °F | °C
As of 12:00 AM on Saturday 25 Oct 2014 (Local Time) from CYNA Reporting Station
Few Clouds Few Clouds  
Wind Chill: 36°   Ceiling: Unl
Heat Index: 45°   Visibility: 9mi
Dew Point: 32°   Wind: 22mph
Humidity: 61%   Direction: 50°NE
Pressure: 29.68"   Gusts: 28mph
Location:  50.13°N, 61.8°W
Report Text: CYNA 250300Z AUTO 05019G24KT 9SM FEW150 07/00 A2968 RMK SLP050
Loading
Personal Weather Stations






























Interactive Weather Map
Tropical Storm Tracking
New forecast layout! Learn more

10-Day Weather Forecast

Advertisements
Track Severe Weather on mobile